Time;durP1;ratioP1;P1;durP2;ratioP2;P2;SDS_P1;SDS_P2;PMS_P1;PMS_P2;Temp;Humidity;BMP_temperature;BMP_pressure;BME280_temperature;BME280_humidity;BME280_pressure;Samples;Min_cycle;Max_cycle;Signal;HPM_P1;HPM_P2
2022/09/26 00:01:23;;;;;;;5.00;3.10;;;;;;;12.00;80.03;98434.42;104667;1274;76144;-26
2022/09/26 00:03:52;;;;;;;5.30;3.50;;;;;;;12.41;78.57;98432.19;104368;1274;74702;-27
2022/09/26 00:06:20;;;;;;;5.20;3.60;;;;;;;12.36;78.18;98428.40;104604;1274;73895;-27
2022/09/26 00:08:48;;;;;;;5.70;3.30;;;;;;;12.14;78.80;98427.72;104388;1274;61815;-27
2022/09/26 00:11:17;;;;;;;5.90;3.80;;;;;;;11.84;79.27;98427.05;104651;1273;61379;-26
2022/09/26 00:13:44;;;;;;;7.70;4.10;;;;;;;11.52;80.17;98424.35;104457;1274;76559;-26
2022/09/26 00:16:11;;;;;;;3.30;2.30;;;;;;;11.38;80.81;98418.02;104583;1274;77049;-26
2022/09/26 00:18:39;;;;;;;4.20;2.70;;;;;;;11.97;80.42;98411.17;104463;1274;75475;-26
2022/09/26 00:21:12;;;;;;;3.90;2.70;;;;;;;12.40;78.52;98412.27;103941;1273;1007730;-26
2022/09/26 00:23:42;;;;;;;5.90;3.30;;;;;;;12.32;78.51;98414.08;104325;1277;61830;-26
2022/09/26 00:26:10;;;;;;;5.60;3.70;;;;;;;12.07;78.76;98412.93;104698;1274;76636;-26
2022/09/26 00:28:37;;;;;;;7.50;3.60;;;;;;;11.73;79.38;98416.35;104465;1275;76966;-26
2022/09/26 00:31:06;;;;;;;6.30;2.90;;;;;;;11.36;81.08;98417.53;104720;1273;75439;-26
2022/09/26 00:33:33;;;;;;;4.80;3.30;;;;;;;11.60;81.15;98415.80;104519;1274;62145;-26
2022/09/26 00:36:00;;;;;;;5.60;3.60;;;;;;;11.85;80.14;98406.30;104603;1274;63124;-26
2022/09/26 00:38:27;;;;;;;8.40;3.90;;;;;;;11.80;79.89;98401.21;104725;1274;75557;-26
2022/09/26 00:40:54;;;;;;;6.30;3.40;;;;;;;11.61;80.29;98400.08;104636;1274;77049;-26
2022/09/26 00:43:30;;;;;;;5.40;2.70;;;;;;;11.39;80.79;98400.70;104534;1274;74159;-26
2022/09/26 00:46:21;;;;;;;3.60;2.50;;;;;;;11.77;80.68;98400.61;104567;1274;61153;-26
2022/09/26 00:49:09;;;;;;;6.50;3.30;;;;;;;12.25;79.13;98400.22;104436;1274;63372;-26
2022/09/26 00:51:37;;;;;;;4.80;3.10;;;;;;;12.18;79.05;98396.58;104577;1274;75415;-26
2022/09/26 00:54:05;;;;;;;6.80;3.30;;;;;;;11.94;79.02;98393.21;104361;1274;76019;-25
2022/09/26 00:56:34;;;;;;;4.90;3.60;;;;;;;11.68;79.48;98395.39;104342;1274;73446;-26
2022/09/26 00:59:09;;;;;;;7.60;2.70;;;;;;;11.46;80.44;98390.75;104305;1274;64685;-26
2022/09/26 01:01:36;;;;;;;4.30;2.60;;;;;;;11.75;80.60;98397.02;104313;1274;63418;-26
2022/09/26 01:04:03;;;;;;;8.80;3.90;;;;;;;12.00;79.81;98398.70;104677;1274;75557;-26
2022/09/26 01:06:31;;;;;;;6.60;3.40;;;;;;;11.93;79.52;98394.70;104609;1274;76994;-26
2022/09/26 01:09:00;;;;;;;4.50;3.20;;;;;;;11.75;80.14;98389.50;104660;1274;75288;-26
2022/09/26 01:11:28;;;;;;;11.30;3.30;;;;;;;11.54;80.44;98385.65;104446;1274;63015;-25
2022/09/26 01:13:55;;;;;;;6.80;2.10;;;;;;;11.36;81.04;98386.97;104608;1274;62005;-25
2022/09/26 01:16:22;;;;;;;4.20;2.20;;;;;;;11.74;80.95;98386.46;104623;1274;76195;-25
2022/09/26 01:18:50;;;;;;;7.70;3.30;;;;;;;12.25;79.60;98388.18;104324;1277;75775;-25
2022/09/26 01:21:23;;;;;;;6.10;3.10;;;;;;;12.27;78.98;98387.84;104821;1274;75389;-25
2022/09/26 01:24:26;;;;;;;3.90;2.90;;;;;;;12.06;79.37;98383.77;104374;1274;61706;-25
2022/09/26 01:27:21;;;;;;;8.60;3.70;;;;;;;11.65;80.39;98384.59;104200;1280;61915;-26
2022/09/26 01:29:57;;;;;;;6.70;2.50;;;;;;;11.41;81.47;98380.61;104420;1274;76588;-25
2022/09/26 01:32:52;;;;;;;4.70;2.80;;;;;;;11.83;81.10;98379.36;104694;1274;74903;-25
2022/09/26 01:35:47;;;;;;;3.90;2.60;;;;;;;12.08;79.80;98371.26;104525;1277;75588;-26
2022/09/26 01:38:36;;;;;;;3.90;3.30;;;;;;;11.86;80.02;98373.67;104636;1274;62830;-25
2022/09/26 01:41:27;;;;;;;5.60;3.20;;;;;;;11.55;80.89;98374.23;104563;1274;63203;-25
2022/09/26 01:43:57;;;;;;;3.30;2.30;;;;;;;11.35;81.87;98369.00;104615;1274;76630;-25
2022/09/26 01:46:30;;;;;;;4.80;2.90;;;;;;;11.84;81.14;98359.95;104623;1274;76157;-25
2022/09/26 01:49:08;;;;;;;3.40;2.40;;;;;;;12.22;79.85;98360.41;104627;1274;75354;-25
2022/09/26 01:51:57;;;;;;;6.60;3.10;;;;;;;12.16;79.58;98365.03;104357;1274;62816;-25
2022/09/26 01:54:41;;;;;;;4.50;3.10;;;;;;;11.86;80.21;98358.01;104575;1274;61930;-25
2022/09/26 01:57:13;;;;;;;5.10;4.10;;;;;;;11.48;81.21;98361.64;104641;1274;76333;-25
2022/09/26 01:59:46;;;;;;;2.60;1.90;;;;;;;11.30;81.77;98353.09;104432;1274;77277;-25
2022/09/26 02:02:18;;;;;;;6.20;2.80;;;;;;;11.69;81.86;98352.73;104670;1274;75704;-25
2022/09/26 02:04:45;;;;;;;3.90;3.50;;;;;;;12.12;80.34;98347.73;104649;1274;61742;-25
2022/09/26 02:07:20;;;;;;;5.60;3.60;;;;;;;12.01;80.10;98348.71;104429;1277;62702;-25
2022/09/26 02:09:51;;;;;;;7.20;4.30;;;;;;;11.73;80.98;98347.77;104376;1274;76443;-25
2022/09/26 02:12:31;;;;;;;4.40;3.60;;;;;;;11.53;81.44;98346.79;104411;1274;76396;-24
2022/09/26 02:15:03;;;;;;;6.10;3.10;;;;;;;11.32;82.75;98346.70;104580;1274;75204;-25
2022/09/26 02:17:38;;;;;;;4.80;3.40;;;;;;;11.61;82.32;98344.91;104329;1277;62268;-25
2022/09/26 02:20:10;;;;;;;4.90;3.00;;;;;;;11.76;81.37;98339.66;104559;1274;61899;-24
2022/09/26 02:22:37;;;;;;;4.80;3.20;;;;;;;11.61;81.74;98336.25;104282;1274;76687;-25
2022/09/26 02:25:05;;;;;;;6.50;4.10;;;;;;;11.39;82.48;98334.58;104607;1274;74975;-24
2022/09/26 02:27:32;;;;;;;5.00;2.80;;;;;;;11.20;83.57;98333.54;104347;1277;75368;-25
2022/09/26 02:29:59;;;;;;;3.60;3.10;;;;;;;11.64;82.77;98327.45;104595;1274;63071;-24
2022/09/26 02:32:28;;;;;;;3.70;3.20;;;;;;;12.10;81.05;98324.70;104650;1274;61685;-25
2022/09/26 02:34:56;;;;;;;7.70;3.30;;;;;;;12.03;80.43;98323.71;104418;1274;76456;-25
2022/09/26 02:37:23;;;;;;;4.80;3.50;;;;;;;11.81;81.32;98325.33;104571;1274;75685;-24
2022/09/26 02:39:51;;;;;;;7.40;3.80;;;;;;;11.54;81.75;98326.00;104739;1272;73407;-25
2022/09/26 02:42:45;;;;;;;5.10;3.70;;;;;;;11.24;83.43;98327.27;104847;1274;64654;-25
2022/09/26 02:45:14;;;;;;;6.20;3.70;;;;;;;11.64;82.48;98322.19;104704;1274;62958;-25
2022/09/26 02:47:44;;;;;;;6.40;3.30;;;;;;;11.74;81.94;98325.58;104563;1274;76662;-24
2022/09/26 02:50:40;;;;;;;5.00;4.10;;;;;;;11.67;81.93;98325.13;104586;1274;75120;-24
2022/09/26 02:53:10;;;;;;;6.40;3.50;;;;;;;11.36;82.84;98328.39;104589;1274;74182;-25
2022/09/26 02:56:26;;;;;;;3.50;2.90;;;;;;;11.26;84.40;98331.64;104816;1271;64983;-25
2022/09/26 02:58:58;;;;;;;5.00;3.90;;;;;;;11.80;82.53;98327.30;104681;1274;61889;-25
2022/09/26 03:01:31;;;;;;;4.10;3.50;;;;;;;11.77;82.11;98328.33;104618;1274;76730;-24
2022/09/26 03:04:04;;;;;;;5.00;4.20;;;;;;;11.50;83.07;98329.98;104579;1272;77276;-24
2022/09/26 03:06:40;;;;;;;6.50;3.50;;;;;;;11.27;84.01;98324.91;104573;1274;75403;-25
2022/09/26 03:09:07;;;;;;;3.90;3.10;;;;;;;11.22;84.79;98323.33;104422;1274;63362;-25
2022/09/26 03:11:34;;;;;;;4.30;3.50;;;;;;;11.75;83.21;98323.75;104373;1274;61971;-25
2022/09/26 03:14:01;;;;;;;4.20;3.70;;;;;;;11.93;82.24;98326.36;104689;1274;75404;-25
2022/09/26 03:16:34;;;;;;;4.40;3.20;;;;;;;11.78;82.28;98322.98;105022;1274;75956;-24
2022/09/26 03:19:29;;;;;;;5.00;3.70;;;;;;;11.52;83.00;98321.60;104590;1274;75884;-24
2022/09/26 03:21:57;;;;;;;4.30;2.80;;;;;;;11.33;84.14;98325.02;104628;1274;65088;-24
2022/09/26 03:24:25;;;;;;;4.50;3.20;;;;;;;11.77;83.21;98323.44;104698;1274;63280;-25
2022/09/26 03:26:54;;;;;;;4.80;3.50;;;;;;;12.03;81.93;98321.05;104652;1272;76879;-24
2022/09/26 03:29:22;;;;;;;3.90;3.20;;;;;;;11.93;81.65;98318.41;104582;1274;77033;-24
2022/09/26 03:31:50;;;;;;;6.20;3.20;;;;;;;11.66;82.75;98324.48;104605;1273;75129;-24
2022/09/26 03:34:18;;;;;;;4.10;3.60;;;;;;;11.45;83.67;98323.69;104734;1274;62100;-25
2022/09/26 03:36:45;;;;;;;3.30;2.70;;;;;;;11.35;83.75;98321.56;104704;1274;62058;-25
2022/09/26 03:39:13;;;;;;;4.70;3.00;;;;;;;11.77;83.21;98318.74;104570;1274;76489;-25
2022/09/26 03:41:49;;;;;;;4.20;3.20;;;;;;;12.01;82.17;98320.09;104581;1274;75897;-25
2022/09/26 03:44:24;;;;;;;4.70;3.10;;;;;;;11.91;82.22;98315.08;104619;1274;74593;-27
2022/09/26 03:47:06;;;;;;;7.60;3.70;;;;;;;11.67;82.88;98317.91;104559;1274;62275;-25
2022/09/26 03:49:38;;;;;;;4.30;2.60;;;;;;;11.44;83.96;98319.06;104798;1273;61729;-25
2022/09/26 03:52:06;;;;;;;3.90;2.90;;;;;;;11.69;83.83;98318.28;104743;1274;75393;-25
2022/09/26 03:54:33;;;;;;;3.40;3.00;;;;;;;12.05;82.61;98316.73;104905;1273;77175;-25
2022/09/26 03:57:00;;;;;;;3.80;3.00;;;;;;;11.99;82.20;98314.13;104860;1274;75486;-25
2022/09/26 03:59:27;;;;;;;4.70;3.30;;;;;;;11.77;82.80;98311.80;104568;1274;61971;-25
2022/09/26 04:01:55;;;;;;;2.70;2.00;;;;;;;11.62;83.45;98309.20;104628;1274;62089;-25
2022/09/26 04:04:23;;;;;;;3.60;2.80;;;;;;;11.95;83.06;98310.54;104790;1274;75937;-24
2022/09/26 04:06:50;;;;;;;4.20;2.90;;;;;;;12.31;81.51;98312.37;104710;1273;75252;-25
2022/09/26 04:09:18;;;;;;;3.80;2.90;;;;;;;12.29;81.27;98310.30;104675;1274;74093;-25
2022/09/26 04:11:48;;;;;;;5.90;3.60;;;;;;;12.09;81.47;98304.98;104707;1274;61729;-25
2022/09/26 04:14:16;;;;;;;3.90;3.10;;;;;;;11.89;82.25;98295.16;104741;1274;61033;-24
2022/09/26 04:16:45;;;;;;;3.20;1.90;;;;;;;11.71;83.08;98295.51;104618;1274;77041;-24
2022/09/26 04:19:21;;;;;;;3.10;2.30;;;;;;;12.15;82.39;98293.79;104714;1274;76175;-25
2022/09/26 04:21:50;;;;;;;4.30;2.80;;;;;;;12.57;80.64;98294.80;104814;1274;74344;-25
2022/09/26 04:24:20;;;;;;;5.40;3.00;;;;;;;12.56;80.42;98298.10;104707;1274;61096;-25
2022/09/26 04:26:47;;;;;;;4.40;3.00;;;;;;;12.38;80.68;98295.16;104763;1274;61257;-25
2022/09/26 04:29:14;;;;;;;4.10;3.00;;;;;;;12.16;81.55;98293.55;104749;1274;75248;-25
2022/09/26 04:32:00;;;;;;;4.80;3.40;;;;;;;11.91;82.44;98289.38;104649;1274;75956;-24
2022/09/26 04:34:42;;;;;;;5.60;4.40;;;;;;;12.40;81.60;98294.10;104763;1273;74395;-25
2022/09/26 04:37:09;;;;;;;6.30;5.70;;;;;;;12.69;80.05;98295.84;104632;1274;63167;-25
2022/09/26 04:39:36;;;;;;;6.40;4.80;;;;;;;12.62;80.14;98297.95;104634;1274;61987;-25
2022/09/26 04:42:03;;;;;;;4.40;4.00;;;;;;;12.37;80.82;98298.42;104667;1274;76617;-25
2022/09/26 04:44:31;;;;;;;5.70;4.40;;;;;;;12.12;81.97;98296.16;104688;1274;77093;-25
2022/09/26 04:46:58;;;;;;;4.10;2.80;;;;;;;11.91;82.89;98292.70;104711;1274;75583;-25
2022/09/26 04:49:41;;;;;;;5.00;3.60;;;;;;;12.35;82.44;98298.48;104674;1274;62022;-25
2022/09/26 04:52:08;;;;;;;6.60;4.80;;;;;;;12.60;81.06;98302.48;104630;1274;63059;-25
2022/09/26 04:54:37;;;;;;;6.40;4.80;;;;;;;12.48;81.37;98302.17;104720;1271;76627;-25
2022/09/26 04:57:05;;;;;;;5.80;4.60;;;;;;;12.26;82.14;98302.64;104683;1271;76956;-25
2022/09/26 04:59:34;;;;;;;6.10;3.50;;;;;;;12.07;82.67;98300.30;104839;1272;75219;-25
2022/09/26 05:02:02;;;;;;;6.10;4.10;;;;;;;12.09;83.40;98309.16;104821;1273;62307;-25
2022/09/26 05:04:38;;;;;;;6.50;4.70;;;;;;;12.43;82.23;98316.58;104686;1271;62792;-25
2022/09/26 05:07:05;;;;;;;5.50;3.70;;;;;;;12.54;81.48;98315.16;104438;1271;76556;-25
2022/09/26 05:09:32;;;;;;;5.90;3.70;;;;;;;12.39;81.88;98315.11;104751;1274;77165;-25
2022/09/26 05:12:22;;;;;;;5.60;3.70;;;;;;;12.09;82.90;98314.01;104734;1271;75550;-25
2022/09/26 05:14:52;;;;;;;4.70;2.30;;;;;;;12.00;83.39;98309.47;104693;1271;64594;-25
2022/09/26 05:17:20;;;;;;;5.30;2.60;;;;;;;12.38;82.54;98309.08;104816;1271;63297;-25
2022/09/26 05:19:48;;;;;;;4.60;3.60;;;;;;;12.63;81.24;98306.42;104780;1271;75571;-25
2022/09/26 05:22:27;;;;;;;6.00;4.50;;;;;;;12.58;81.18;98299.64;104663;1274;75233;-25
2022/09/26 05:27:41;;;;;;;5.00;2.60;;;;;;;12.08;83.50;98293.82;105076;1271;63611;-25
2022/09/26 05:30:08;;;;;;;3.80;3.00;;;;;;;12.53;82.40;98299.02;104944;1272;62710;-25
2022/09/26 05:32:36;;;;;;;4.50;3.20;;;;;;;12.95;81.16;98297.98;104986;1271;75477;-25
2022/09/26 05:35:04;;;;;;;2.90;2.40;;;;;;;12.95;80.25;98301.90;104631;1274;76948;-25
2022/09/26 05:37:35;;;;;;;4.20;2.70;;;;;;;12.72;81.04;98302.38;104432;1271;73538;-25
2022/09/26 05:42:50;;;;;;;2.20;1.70;;;;;;;12.46;81.78;98300.27;105042;1271;62059;-25
2022/09/26 05:45:18;;;;;;;5.60;3.80;;;;;;;12.96;80.78;98302.68;104727;1271;76905;-26
2022/09/26 05:47:47;;;;;;;9.60;5.40;;;;;;;13.22;79.43;98308.44;104819;1274;77398;-26
2022/09/26 05:50:15;;;;;;;5.00;4.20;;;;;;;13.14;79.61;98309.38;105002;1271;75043;-25
2022/09/26 05:52:43;;;;;;;7.50;6.50;;;;;;;12.76;80.83;98314.11;104741;1274;63220;-25
2022/09/26 05:55:15;;;;;;;5.70;4.50;;;;;;;12.47;81.98;98318.09;104804;1271;61046;-25
2022/09/26 05:58:04;;;;;;;8.20;5.80;;;;;;;12.32;83.59;98319.58;104794;1271;75475;-25
2022/09/26 06:00:54;;;;;;;10.10;9.00;;;;;;;12.85;81.65;98312.19;104670;1271;76152;-25
2022/09/26 06:03:22;;;;;;;8.60;4.60;;;;;;;12.97;81.04;98305.73;104897;1271;74368;-25
2022/09/26 06:06:18;;;;;;;6.50;5.80;;;;;;;12.91;80.69;98302.86;104530;1274;63125;-25
2022/09/26 06:08:46;;;;;;;4.90;4.40;;;;;;;12.62;81.63;98304.59;104819;1271;62177;-26
2022/09/26 06:11:45;;;;;;;6.20;3.40;;;;;;;12.46;82.82;98308.16;104395;1271;75414;-26
2022/09/26 06:14:13;;;;;;;3.10;2.60;;;;;;;12.95;82.06;98300.92;104749;1271;77607;-26
2022/09/26 06:16:40;;;;;;;3.70;3.10;;;;;;;13.35;80.75;98289.58;104733;1271;75381;-26
2022/09/26 06:19:07;;;;;;;6.60;3.40;;;;;;;13.43;80.03;98293.03;104751;1271;61976;-26
2022/09/26 06:21:37;;;;;;;3.40;2.80;;;;;;;13.21;79.92;98296.17;104802;1271;61050;-25
2022/09/26 06:24:09;;;;;;;7.50;3.00;;;;;;;12.90;81.05;98304.77;104814;1271;76939;-25
2022/09/26 06:26:36;;;;;;;6.30;5.70;;;;;;;12.77;82.04;98307.42;104708;1271;75012;-26
2022/09/26 06:29:04;;;;;;;8.80;8.00;;;;;;;13.33;80.97;98300.14;104701;1271;74042;-26
2022/09/26 06:31:35;;;;;;;7.20;4.50;;;;;;;13.55;79.48;98313.36;104722;1271;61172;-25
2022/09/26 06:34:08;;;;;;;4.30;3.70;;;;;;;13.31;80.19;98319.30;104635;1274;62025;-25
2022/09/26 06:37:05;;;;;;;3.60;3.30;;;;;;;13.00;81.28;98316.29;104767;1271;75360;-25
2022/09/26 06:39:35;;;;;;;5.60;3.60;;;;;;;12.83;81.99;98309.80;104774;1271;76044;-26
2022/09/26 06:42:06;;;;;;;4.70;3.00;;;;;;;13.35;81.43;98303.53;104654;1273;74075;-25
2022/09/26 06:44:48;;;;;;;2.50;2.10;;;;;;;13.91;79.46;98295.91;104710;1271;61036;-25
2022/09/26 06:47:25;;;;;;;5.40;2.30;;;;;;;14.04;78.61;98286.88;104763;1271;61064;-25
2022/09/26 06:50:06;;;;;;;6.40;2.50;;;;;;;13.99;78.26;98281.23;104491;1274;73480;-25
2022/09/26 06:52:37;;;;;;;3.30;3.00;;;;;;;13.84;78.54;98278.62;104684;1271;77086;-25
2022/09/26 06:55:06;;;;;;;2.90;1.60;;;;;;;13.81;79.18;98281.53;104762;1272;74388;-25
2022/09/26 06:57:38;;;;;;;3.70;2.30;;;;;;;14.10;77.71;98288.76;104675;1274;63068;-25
2022/09/26 07:00:11;;;;;;;3.10;2.10;;;;;;;14.39;77.02;98294.85;104626;1271;62863;-25
2022/09/26 07:03:04;;;;;;;2.50;1.90;;;;;;;14.37;77.10;98291.23;104665;1272;76497;-23
2022/09/26 07:06:04;;;;;;;5.10;3.20;;;;;;;14.00;77.29;98286.70;104378;1272;75747;-23
2022/09/26 07:08:31;;;;;;;4.60;2.70;;;;;;;13.89;78.61;98290.45;104675;1271;73284;-23
2022/09/26 07:11:27;;;;;;;3.60;1.60;;;;;;;13.78;79.44;98290.17;104703;1274;63343;-23
2022/09/26 07:14:16;;;;;;;4.60;2.80;;;;;;;14.24;77.99;98291.58;104746;1274;61040;-23
2022/09/26 07:16:52;;;;;;;2.90;2.40;;;;;;;14.65;76.04;98292.14;104757;1271;75576;-23
2022/09/26 07:19:28;;;;;;;3.40;2.40;;;;;;;14.55;76.45;98296.11;104703;1273;76822;-24
2022/09/26 07:22:01;;;;;;;;;;;;;;;14.23;76.97;98294.66;104808;1271;74329;-24
2022/09/26 07:24:33;;;;;;;2.20;2.00;;;;;;;14.03;78.00;98293.80;104693;1272;61073;-24
2022/09/26 07:27:02;;;;;;;2.30;1.80;;;;;;;13.88;78.35;98297.30;104830;1271;62934;-24
2022/09/26 07:29:29;;;;;;;4.40;1.90;;;;;;;13.83;78.58;98299.48;104764;1274;76596;-24
2022/09/26 07:31:57;;;;;;;2.40;2.10;;;;;;;14.50;77.33;98301.30;104754;1271;74889;-24
2022/09/26 07:34:48;;;;;;;4.10;1.80;;;;;;;14.89;76.58;98307.20;104500;1274;75438;-24
2022/09/26 07:37:16;;;;;;;7.60;2.50;;;;;;;14.84;75.73;98308.95;104799;1271;61873;-25
2022/09/26 07:39:44;;;;;;;3.20;2.90;;;;;;;14.74;76.72;98304.35;105102;1271;62038;-24
2022/09/26 07:42:16;;;;;;;6.40;3.20;;;;;;;14.67;76.29;98300.23;105045;1274;76756;-23
2022/09/26 07:44:43;;;;;;;2.10;1.90;;;;;;;14.51;76.46;98300.67;104893;1274;76065;-23
2022/09/26 07:50:36;;;;;;;3.30;2.70;;;;;;;15.24;73.55;98301.77;104716;1271;62010;-24
2022/09/26 07:53:18;;;;;;;4.90;2.60;;;;;;;15.13;74.27;98297.41;104866;1271;62011;-24
2022/09/26 07:56:11;;;;;;;3.10;2.60;;;;;;;14.80;73.09;98290.93;104502;1271;76607;-23
2022/09/26 07:58:58;;;;;;;4.50;2.60;;;;;;;14.64;74.80;98285.81;104779;1271;75030;-23
2022/09/26 08:01:37;;;;;;;3.10;2.80;;;;;;;14.63;75.23;98281.23;104764;1271;75149;-23
2022/09/26 08:04:42;;;;;;;2.40;1.80;;;;;;;14.61;75.88;98281.42;104642;1271;64776;-24
2022/09/26 08:07:11;;;;;;;7.10;2.80;;;;;;;15.13;74.37;98283.24;104700;1271;62861;-23
2022/09/26 08:09:46;;;;;;;3.40;2.60;;;;;;;15.47;73.24;98281.31;104657;1272;76583;-23
2022/09/26 08:12:38;;;;;;;3.10;2.50;;;;;;;15.21;73.24;98286.77;104730;1271;76979;-23
2022/09/26 08:15:18;;;;;;;6.50;3.30;;;;;;;15.10;74.69;98285.66;104682;1274;74359;-23
2022/09/26 08:17:45;;;;;;;3.90;3.40;;;;;;;14.97;74.16;98286.23;104749;1272;63340;-24
2022/09/26 08:20:12;;;;;;;4.90;3.40;;;;;;;14.81;74.62;98284.70;104747;1271;61814;-24
2022/09/26 08:22:40;;;;;;;2.30;1.80;;;;;;;14.61;75.83;98284.05;104739;1271;76346;-23
2022/09/26 08:25:08;;;;;;;4.30;2.40;;;;;;;15.05;75.49;98284.87;104852;1271;76090;-25
2022/09/26 08:27:42;;;;;;;3.90;2.70;;;;;;;15.61;74.05;98277.30;104627;1271;75124;-24
2022/09/26 08:30:10;;;;;;;4.40;2.90;;;;;;;15.68;72.98;98277.38;104850;1271;62108;-24
2022/09/26 08:32:38;;;;;;;3.70;3.40;;;;;;;15.37;73.12;98281.39;104763;1272;63199;-24
2022/09/26 08:35:06;;;;;;;4.00;3.10;;;;;;;15.13;74.10;98284.07;104760;1271;75492;-24
2022/09/26 08:37:33;;;;;;;5.80;3.20;;;;;;;14.90;73.90;98290.23;104689;1272;76761;-23
2022/09/26 08:40:22;;;;;;;5.70;3.50;;;;;;;14.61;75.28;98286.10;104901;1272;75336;-23
2022/09/26 08:43:18;;;;;;;6.10;2.30;;;;;;;14.54;75.13;98281.19;104611;1272;63408;-23
2022/09/26 08:49:37;;;;;;;3.60;3.20;;;;;;;15.24;73.04;98277.52;104753;1274;76685;-24
2022/09/26 08:52:22;;;;;;;4.20;3.60;;;;;;;15.24;73.73;98273.60;104690;1271;77009;-24
2022/09/26 08:54:49;;;;;;;4.20;3.10;;;;;;;15.16;73.99;98271.41;104744;1272;75166;-25
2022/09/26 08:57:21;;;;;;;4.50;3.40;;;;;;;15.11;74.53;98272.80;104690;1271;63053;-24
2022/09/26 08:59:48;;;;;;;2.70;2.00;;;;;;;15.11;75.00;98278.21;104817;1271;62917;-24
2022/09/26 09:02:17;;;;;;;3.70;2.60;;;;;;;15.64;74.09;98272.23;104829;1271;76637;-24
2022/09/26 09:05:14;;;;;;;4.40;2.70;;;;;;;16.19;71.62;98271.55;104708;1274;76891;-24
2022/09/26 09:07:42;;;;;;;4.50;3.60;;;;;;;15.81;70.49;98271.17;104651;1274;74160;-24
2022/09/26 09:10:16;;;;;;;3.50;3.10;;;;;;;15.53;72.24;98271.41;104746;1274;62039;-24
2022/09/26 09:13:30;;;;;;;7.20;3.80;;;;;;;15.35;72.21;98270.09;104640;1271;62472;-24
2022/09/26 09:16:35;;;;;;;4.10;3.70;;;;;;;15.22;72.98;98270.55;104916;1274;76355;-24
2022/09/26 09:19:41;;;;;;;3.50;2.80;;;;;;;15.18;73.02;98269.98;104470;1274;76832;-24
2022/09/26 09:22:45;;;;;;;5.50;3.30;;;;;;;15.70;72.53;98264.20;104777;1274;74407;-24
2022/09/26 09:25:56;;;;;;;5.40;3.40;;;;;;;15.93;70.59;98262.69;105038;1271;62043;-24
2022/09/26 09:29:21;;;;;;;6.30;4.20;;;;;;;15.51;70.82;98259.94;105053;1274;61951;-24
2022/09/26 09:32:20;;;;;;;5.70;4.00;;;;;;;15.20;71.57;98254.48;104907;1274;76591;-26
2022/09/26 09:35:11;;;;;;;6.40;4.50;;;;;;;15.10;72.06;98257.02;104799;1274;74941;-24
2022/09/26 09:37:50;;;;;;;4.60;3.50;;;;;;;15.08;72.36;98258.63;104751;1274;75342;-23
2022/09/26 09:40:32;;;;;;;8.40;3.80;;;;;;;15.46;71.71;98252.56;104795;1274;61713;-24
2022/09/26 09:43:12;;;;;;;5.90;3.60;;;;;;;15.61;70.97;98251.23;104462;1274;62753;-24
2022/09/26 09:45:50;;;;;;;7.90;3.90;;;;;;;15.62;71.40;98251.33;104579;1274;75781;-24
2022/09/26 09:48:17;;;;;;;4.80;3.30;;;;;;;15.55;70.49;98248.14;104670;1274;75766;-24
2022/09/26 09:50:57;;;;;;;9.70;4.30;;;;;;;15.31;71.02;98246.80;105004;1274;74543;-24
2022/09/26 09:54:06;;;;;;;5.00;3.30;;;;;;;15.11;71.49;98246.23;104745;1274;61888;-25
2022/09/26 09:56:40;;;;;;;3.60;2.10;;;;;;;15.27;72.92;98244.08;104358;1274;62836;-25
2022/09/26 09:59:36;;;;;;;5.40;2.60;;;;;;;16.16;71.38;98243.16;104428;1272;75529;-25
2022/09/26 10:02:18;;;;;;;5.30;3.00;;;;;;;16.72;67.48;98242.77;104695;1274;76981;-25
2022/09/26 10:04:49;;;;;;;7.60;2.90;;;;;;;16.54;67.39;98241.73;104615;1271;75386;-25
2022/09/26 10:07:17;;;;;;;4.80;2.80;;;;;;;16.42;67.59;98238.39;104669;1273;61985;-25
2022/09/26 10:09:59;;;;;;;5.10;3.50;;;;;;;16.32;70.22;98238.32;104706;1271;60986;-26
2022/09/26 10:12:45;;;;;;;4.30;3.90;;;;;;;16.27;69.32;98235.02;104852;1271;75310;-26
2022/09/26 10:15:56;;;;;;;5.70;3.50;;;;;;;16.12;70.43;98234.73;104026;1280;76985;-26
2022/09/26 10:19:06;;;;;;;3.40;2.10;;;;;;;16.21;70.80;98234.52;104736;1272;74362;-24
2022/09/26 10:21:46;;;;;;;3.10;2.40;;;;;;;16.90;68.37;98232.52;104735;1274;61834;-24
2022/09/26 10:24:37;;;;;;;4.40;3.10;;;;;;;17.21;67.60;98231.65;104715;1271;63105;-26
2022/09/26 10:27:23;;;;;;;6.90;2.90;;;;;;;17.19;66.49;98226.29;104690;1271;75711;-26
2022/09/26 10:29:58;;;;;;;3.60;2.70;;;;;;;17.05;66.86;98222.46;104695;1274;76047;-25
2022/09/26 10:32:26;;;;;;;3.80;3.30;;;;;;;16.95;67.67;98221.61;104613;1274;74243;-25
2022/09/26 10:35:20;;;;;;;6.50;3.60;;;;;;;16.87;67.70;98215.89;104646;1271;61912;-25
2022/09/26 10:38:07;;;;;;;4.90;3.70;;;;;;;16.71;66.81;98216.22;104731;1271;63073;-25
2022/09/26 10:40:44;;;;;;;6.00;4.10;;;;;;;16.61;68.09;98210.92;104785;1272;76573;-26
2022/09/26 10:43:21;;;;;;;5.30;4.40;;;;;;;16.59;68.03;98204.16;104682;1271;76474;-24
2022/09/26 10:45:53;;;;;;;8.20;3.70;;;;;;;16.63;68.03;98204.73;104552;1271;74375;-24
2022/09/26 10:48:53;;;;;;;7.40;3.40;;;;;;;17.54;67.14;98200.13;104643;1272;61690;-24
2022/09/26 10:51:43;;;;;;;7.10;3.30;;;;;;;18.30;64.53;98198.70;104788;1272;61997;-25
2022/09/26 10:54:15;;;;;;;13.50;8.00;;;;;;;18.43;63.30;98196.83;104715;1272;75618;-25
2022/09/26 10:56:46;;;;;;;8.40;4.40;;;;;;;18.34;62.75;98193.10;104537;1275;74776;-24
2022/09/26 10:59:14;;;;;;;9.80;4.00;;;;;;;18.23;62.74;98192.69;104672;1271;75980;-25
2022/09/26 11:01:45;;;;;;;6.00;3.80;;;;;;;18.16;62.89;98195.70;104774;1271;61112;-24
2022/09/26 11:05:55;;;;;;;9.80;3.50;;;;;;;18.13;62.44;98192.34;104607;1271;63081;-25
2022/09/26 11:07:26;;;;;;;4.70;3.00;;;;;;;18.01;62.09;98192.67;104909;1274;76662;-25
2022/09/26 11:10:26;;;;;;;4.20;3.40;;;;;;;17.95;61.85;98189.84;104618;1271;76003;-25
2022/09/26 11:13:14;;;;;;;9.50;6.00;;;;;;;17.93;62.21;98188.16;104870;1271;74315;-25
2022/09/26 11:16:00;;;;;;;20.70;9.80;;;;;;;17.96;62.25;98185.91;104636;1271;63151;-25
2022/09/26 11:18:53;;;;;;;6.30;3.80;;;;;;;17.95;60.09;98180.55;104901;1274;61732;-25
2022/09/26 11:21:29;;;;;;;6.50;4.40;;;;;;;17.92;60.24;98176.70;104638;1274;75575;-25
2022/09/26 11:24:01;;;;;;;4.80;2.80;;;;;;;17.94;59.78;98176.70;104398;1272;77475;-25
2022/09/26 11:26:36;;;;;;;7.40;4.10;;;;;;;17.81;58.09;98175.31;104704;1274;75382;-25
2022/09/26 11:29:12;;;;;;;21.30;18.90;;;;;;;17.73;60.09;98174.42;104675;1274;61144;-25
2022/09/26 11:31:52;;;;;;;9.50;5.70;;;;;;;17.83;60.30;98167.65;104647;1274;61973;-25
2022/09/26 11:34:34;;;;;;;8.00;3.60;;;;;;;17.80;58.29;98164.52;104851;1274;75577;-24
2022/09/26 11:37:09;;;;;;;22.50;16.00;;;;;;;17.66;57.67;98159.45;105074;1272;75940;-24
2022/09/26 11:39:57;;;;;;;;;;;;;;;17.84;59.58;98155.73;104883;1271;74369;-24
2022/09/26 11:42:28;;;;;;;9.40;4.80;;;;;;;17.84;58.16;98157.04;104776;1271;62351;-25
2022/09/26 11:44:57;;;;;;;10.70;6.40;;;;;;;17.82;57.64;98157.19;104875;1272;62023;-24
2022/09/26 11:47:54;;;;;;;12.30;6.10;;;;;;;17.83;59.59;98153.10;104618;1272;76410;-25
2022/09/26 11:50:28;;;;;;;5.90;4.20;;;;;;;17.75;58.75;98149.51;104706;1274;76068;-24
2022/09/26 11:53:26;;;;;;;18.20;11.90;;;;;;;17.66;59.88;98155.73;104800;1271;74330;-24
2022/09/26 11:56:14;;;;;;;53.30;37.70;;;;;;;17.67;61.57;98158.39;104947;1274;61016;-24
2022/09/26 11:59:01;;;;;;;7.70;5.30;;;;;;;17.70;60.72;98164.85;104686;1271;61936;-24
2022/09/26 12:01:37;;;;;;;6.20;4.20;;;;;;;17.52;59.48;98166.68;104794;1271;76534;-24
2022/09/26 12:04:29;;;;;;;14.00;9.30;;;;;;;17.47;61.16;98158.48;104645;1271;76976;-24
2022/09/26 12:07:22;;;;;;;21.80;13.00;;;;;;;17.31;62.04;98149.04;105068;1274;74023;-24
2022/09/26 12:09:49;;;;;;;7.00;4.60;;;;;;;17.25;62.04;98148.70;105091;1272;62003;-24
2022/09/26 12:12:30;;;;;;;7.70;4.20;;;;;;;17.05;61.94;98150.60;105099;1272;62235;-24
2022/09/26 12:15:07;;;;;;;8.20;5.30;;;;;;;17.00;62.36;98150.13;104876;1272;75432;-24
2022/09/26 12:17:51;;;;;;;7.30;4.40;;;;;;;16.92;62.25;98147.24;104684;1277;75895;-24
2022/09/26 12:20:33;;;;;;;6.50;4.80;;;;;;;16.91;62.55;98150.38;102560;1274;2944905;-24